createdAt,value
2022-12-27T00:01:14.691Z,101154.97
2022-12-27T00:03:42.318Z,101163.75
2022-12-27T00:06:15.541Z,101170.75
2022-12-27T00:08:43.326Z,101183.81
2022-12-27T00:11:12.419Z,101183.81
2022-12-27T00:13:40.348Z,101191.63
2022-12-27T00:16:10.377Z,101190.78
2022-12-27T00:18:39.121Z,101193.41
2022-12-27T00:21:10.138Z,101193.41
2022-12-27T00:23:40.846Z,101201.25
2022-12-27T00:26:14.546Z,101204.72
2022-12-27T00:28:41.735Z,101202.97
2022-12-27T00:31:09.171Z,101200.41
2022-12-27T00:33:37.848Z,101195.19
2022-12-27T00:36:07.137Z,101206.53
2022-12-27T00:38:34.368Z,101203.91
2022-12-27T00:41:02.288Z,101196.97
2022-12-27T00:43:29.475Z,101201.31
2022-12-27T00:45:57.105Z,101197.88
2022-12-27T00:48:24.690Z,101197.00
2022-12-27T00:50:56.973Z,101210.91
2022-12-27T00:53:24.224Z,101206.56
2022-12-27T00:55:51.625Z,101215.25
2022-12-27T00:58:18.808Z,101223.03
2022-12-27T01:00:46.309Z,101218.72
2022-12-27T01:03:13.623Z,101221.31
2022-12-27T01:05:40.871Z,101230.00
2022-12-27T01:08:08.106Z,101232.63
2022-12-27T01:10:35.394Z,101242.16
2022-12-27T01:13:03.507Z,101240.41
2022-12-27T01:15:31.033Z,101249.06
2022-12-27T01:17:58.199Z,101253.44
2022-12-27T01:20:25.382Z,101253.41
2022-12-27T01:22:54.636Z,101260.34
2022-12-27T01:25:23.029Z,101267.31
2022-12-27T01:27:50.226Z,101269.03
2022-12-27T01:30:17.400Z,101269.91
2022-12-27T01:32:44.604Z,101262.06
2022-12-27T01:35:11.767Z,101262.94
2022-12-27T01:37:38.931Z,101273.34
2022-12-27T01:40:06.971Z,101268.16
2022-12-27T01:42:52.124Z,101269.03
2022-12-27T01:45:28.028Z,101270.72
2022-12-27T01:48:15.252Z,101273.31
2022-12-27T01:51:01.806Z,101275.97
2022-12-27T01:53:32.273Z,101280.28
2022-12-27T01:56:29.284Z,101278.53
2022-12-27T01:59:04.144Z,101275.94
2022-12-27T02:01:38.723Z,101279.41
2022-12-27T02:04:09.497Z,101276.78
2022-12-27T02:06:38.206Z,101281.09
2022-12-27T02:09:22.742Z,101276.78
2022-12-27T02:11:56.246Z,101275.88
2022-12-27T02:14:52.584Z,101276.72
2022-12-27T02:17:23.453Z,101287.97
2022-12-27T02:20:11.332Z,101288.84
2022-12-27T02:23:40.067Z,101292.31
2022-12-27T02:26:25.483Z,101298.34
2022-12-27T02:29:28.093Z,101301.84
2022-12-27T02:32:05.595Z,101310.47
2022-12-27T02:34:43.194Z,101307.03
2022-12-27T02:37:12.516Z,101310.47
2022-12-27T02:39:46.695Z,101318.28
2022-12-27T02:42:34.659Z,101320.00
2022-12-27T02:45:21.418Z,101314.78
2022-12-27T02:48:07.876Z,101311.34
2022-12-27T02:51:21.204Z,101320.84
2022-12-27T02:53:55.216Z,101326.09
2022-12-27T02:56:56.753Z,101326.06
2022-12-27T03:00:20.510Z,101330.34
2022-12-27T03:03:28.699Z,101334.69
2022-12-27T03:06:39.748Z,101336.44
2022-12-27T03:10:00.911Z,101343.31
2022-12-27T03:13:00.292Z,101338.09
2022-12-27T03:15:55.048Z,101345.91
2022-12-27T03:18:38.143Z,101347.63
2022-12-27T03:21:26.041Z,101355.44
2022-12-27T03:24:14.981Z,101358.06
2022-12-27T03:26:46.948Z,101364.13
2022-12-27T03:29:35.391Z,101367.59
2022-12-27T03:32:24.192Z,101371.88
2022-12-27T03:34:55.590Z,101366.69
2022-12-27T03:37:54.413Z,101369.25
2022-12-27T03:41:11.140Z,101373.66
2022-12-27T03:43:39.330Z,101377.13
2022-12-27T03:46:34.255Z,101378.06
2022-12-27T03:49:24.113Z,101374.53
2022-12-27T03:52:05.648Z,101379.75
2022-12-27T03:54:41.701Z,101378.03
2022-12-27T03:57:11.560Z,101378.88
2022-12-27T03:59:39.144Z,101378.88
2022-12-27T04:02:07.037Z,101385.75
2022-12-27T04:04:34.539Z,101390.13
2022-12-27T04:07:01.775Z,101390.13
2022-12-27T04:09:47.753Z,101389.22
2022-12-27T04:12:33.640Z,101386.63
2022-12-27T04:15:19.605Z,101396.13
2022-12-27T04:18:05.574Z,101392.69
2022-12-27T04:20:51.851Z,101389.22
2022-12-27T04:23:37.693Z,101392.69
2022-12-27T04:26:23.394Z,101388.31
2022-12-27T04:29:09.181Z,101385.75
2022-12-27T04:31:55.085Z,101388.38
2022-12-27T04:34:41.136Z,101379.69
2022-12-27T04:37:10.844Z,101383.13
2022-12-27T04:39:38.043Z,101373.63
2022-12-27T04:42:24.345Z,101378.81
2022-12-27T04:45:14.833Z,101377.06
2022-12-27T04:48:01.195Z,101380.53
2022-12-27T04:50:50.869Z,101383.13
2022-12-27T04:53:38.893Z,101380.56
2022-12-27T04:56:06.872Z,101382.34
2022-12-27T04:58:34.208Z,101381.44
2022-12-27T05:01:21.765Z,101375.38
2022-12-27T05:03:50.679Z,101381.41
2022-12-27T05:06:18.278Z,101381.41
2022-12-27T05:09:04.003Z,101382.28
2022-12-27T05:11:49.938Z,101380.50
2022-12-27T05:14:17.096Z,101380.47
2022-12-27T05:16:45.161Z,101378.75
2022-12-27T05:19:15.367Z,101384.81
2022-12-27T05:22:03.136Z,101391.75
2022-12-27T05:24:49.499Z,101382.22
2022-12-27T05:27:17.233Z,101392.56
2022-12-27T05:29:44.516Z,101397.72
2022-12-27T05:32:13.497Z,101386.50
2022-12-27T05:34:41.164Z,101397.81
2022-12-27T05:37:08.543Z,101399.53
2022-12-27T05:39:35.839Z,101422.22
2022-12-27T05:42:03.373Z,101408.38
2022-12-27T05:44:30.597Z,101414.53
2022-12-27T05:46:57.919Z,101421.47
2022-12-27T05:49:25.342Z,101419.72
2022-12-27T05:51:52.573Z,101419.69
2022-12-27T05:54:19.815Z,101423.16
2022-12-27T05:56:47.039Z,101416.13
2022-12-27T05:59:14.284Z,101419.56
2022-12-27T06:01:41.570Z,101433.41
2022-12-27T06:04:10.424Z,101440.31
2022-12-27T06:06:37.617Z,101442.03
2022-12-27T06:09:04.861Z,101429.88
2022-12-27T06:11:32.104Z,101433.28
2022-12-27T06:13:59.361Z,101424.63
2022-12-27T06:16:26.757Z,101429.84
2022-12-27T06:18:54.127Z,101434.19
2022-12-27T06:21:22.111Z,101442.88
2022-12-27T06:23:49.928Z,101448.91
2022-12-27T06:26:20.014Z,101445.38
2022-12-27T06:28:49.655Z,101454.91
2022-12-27T06:31:18.417Z,101447.13
2022-12-27T06:33:46.496Z,101445.44
2022-12-27T06:36:15.823Z,101457.59
2022-12-27T06:38:43.127Z,101453.25
2022-12-27T06:41:12.563Z,101449.75
2022-12-27T06:43:40.073Z,101444.47
2022-12-27T06:46:17.284Z,101446.16
2022-12-27T06:48:45.721Z,101448.75
2022-12-27T06:51:13.747Z,101450.53
2022-12-27T06:53:41.936Z,101458.25
2022-12-27T06:56:12.075Z,101453.94
2022-12-27T06:58:39.736Z,101446.97
2022-12-27T07:01:12.042Z,101466.91
2022-12-27T07:03:39.958Z,101466.13
2022-12-27T07:06:09.275Z,101473.16
2022-12-27T07:08:36.571Z,101468.03
2022-12-27T07:11:06.446Z,101472.28
2022-12-27T07:13:38.046Z,101476.66
2022-12-27T07:16:10.453Z,101474.03
2022-12-27T07:18:38.128Z,101485.31
2022-12-27T07:21:06.699Z,101479.31
2022-12-27T07:23:34.022Z,101485.34
2022-12-27T07:26:09.782Z,101496.59
2022-12-27T07:28:37.399Z,101494.78
2022-12-27T07:31:16.169Z,101495.63
2022-12-27T07:33:44.199Z,101494.75
2022-12-27T07:36:18.249Z,101507.78
2022-12-27T07:38:45.497Z,101513.09
2022-12-27T07:41:13.440Z,101519.31
2022-12-27T07:43:40.744Z,101517.72
2022-12-27T07:46:13.832Z,101529.06
2022-12-27T07:48:41.282Z,101520.44
2022-12-27T07:51:09.291Z,101506.63
2022-12-27T07:53:36.629Z,101515.38
2022-12-27T07:56:15.928Z,101524.06
2022-12-27T07:58:47.941Z,101538.00
2022-12-27T08:01:16.739Z,101532.81
2022-12-27T08:03:44.407Z,101538.88
2022-12-27T08:06:31.293Z,101525.91
2022-12-27T08:08:59.347Z,101528.50
2022-12-27T08:11:26.771Z,101528.53
2022-12-27T08:13:54.294Z,101530.34
2022-12-27T08:16:23.902Z,101531.19
2022-12-27T08:18:53.039Z,101528.63
2022-12-27T08:21:20.618Z,101535.63
2022-12-27T08:23:47.847Z,101537.34
2022-12-27T08:26:15.338Z,101534.81
2022-12-27T08:28:42.525Z,101543.50
2022-12-27T08:31:11.467Z,101544.41
2022-12-27T08:33:39.198Z,101540.94
2022-12-27T08:36:53.534Z,101551.38
2022-12-27T08:38:55.667Z,101546.16
2022-12-27T08:41:23.467Z,101560.94
2022-12-27T08:43:50.918Z,101554.88
2022-12-27T08:46:19.539Z,101560.09
2022-12-27T08:48:50.323Z,101558.38
2022-12-27T08:51:26.564Z,101563.63
2022-12-27T08:53:58.818Z,101567.97
2022-12-27T08:56:26.323Z,101574.91
2022-12-27T08:58:53.530Z,101561.03
2022-12-27T09:01:20.907Z,101568.00
2022-12-27T09:03:48.171Z,101557.56
2022-12-27T09:06:18.772Z,101562.81
2022-12-27T09:08:46.910Z,101571.47
2022-12-27T09:11:21.845Z,101569.69
2022-12-27T09:13:49.511Z,101573.13
2022-12-27T09:16:19.732Z,101574.03
2022-12-27T09:18:50.404Z,101590.59
2022-12-27T09:21:18.713Z,101577.59
2022-12-27T09:23:46.793Z,101571.56
2022-12-27T09:26:16.542Z,101588.97
2022-12-27T09:28:44.354Z,101590.72
2022-12-27T09:31:13.039Z,101586.34
2022-12-27T09:33:40.667Z,101591.59
2022-12-27T09:36:09.696Z,101593.34
2022-12-27T09:38:37.490Z,101599.41
2022-12-27T09:41:06.456Z,101598.56
2022-12-27T09:43:42.469Z,101601.13
2022-12-27T09:46:14.841Z,101605.47
2022-12-27T09:48:42.025Z,101604.56
2022-12-27T09:51:17.936Z,101596.75
2022-12-27T09:53:46.484Z,101597.63
2022-12-27T09:56:19.014Z,101602.88
2022-12-27T09:59:07.617Z,101601.13
2022-12-27T10:01:37.160Z,101615.09
2022-12-27T10:04:06.341Z,101607.25
2022-12-27T10:06:50.315Z,101605.53
2022-12-27T10:09:40.289Z,101603.78
2022-12-27T10:12:45.098Z,101598.56
2022-12-27T10:15:30.848Z,101598.50
2022-12-27T10:18:23.055Z,101609.78
2022-12-27T10:21:05.231Z,101595.84
2022-12-27T10:23:34.535Z,101596.59
2022-12-27T10:26:16.393Z,101602.66
2022-12-27T10:28:58.959Z,101596.59
2022-12-27T10:31:26.720Z,101604.44
2022-12-27T10:33:54.313Z,101612.25
2022-12-27T10:36:27.597Z,101613.97
2022-12-27T10:38:55.199Z,101620.09
2022-12-27T10:41:37.355Z,101616.53
2022-12-27T10:44:11.032Z,101619.16
2022-12-27T10:46:38.449Z,101622.66
2022-12-27T10:49:20.730Z,101621.81
2022-12-27T10:51:49.306Z,101629.63
2022-12-27T10:54:29.647Z,101632.22
2022-12-27T10:56:57.960Z,101633.03
2022-12-27T10:59:27.049Z,101642.59
2022-12-27T11:02:03.383Z,101623.44
2022-12-27T11:04:31.666Z,101621.72
2022-12-27T11:07:05.018Z,101624.31
2022-12-27T11:09:44.919Z,101623.47
2022-12-27T11:12:32.950Z,101628.66
2022-12-27T11:15:11.016Z,101625.28
2022-12-27T11:17:55.221Z,101628.81
2022-12-27T11:20:32.290Z,101634.00
2022-12-27T11:23:10.307Z,101635.78
2022-12-27T11:26:02.066Z,101644.47
2022-12-27T11:28:52.951Z,101629.59
2022-12-27T11:31:32.665Z,101647.06
2022-12-27T11:34:03.787Z,101645.34
2022-12-27T11:36:40.775Z,101639.28
2022-12-27T11:39:10.433Z,101650.66
2022-12-27T11:41:47.467Z,101642.00
2022-12-27T11:44:27.203Z,101655.06
2022-12-27T11:47:05.451Z,101653.34
2022-12-27T11:49:48.562Z,101657.66
2022-12-27T11:52:36.717Z,101652.41
2022-12-27T11:55:33.644Z,101658.53
2022-12-27T11:58:32.940Z,101654.19
2022-12-27T12:01:27.801Z,101648.91
2022-12-27T12:04:09.710Z,101655.88
2022-12-27T12:07:10.479Z,101648.88
2022-12-27T12:10:16.546Z,101658.47
2022-12-27T12:13:05.062Z,101654.97
2022-12-27T12:15:57.841Z,101655.91
2022-12-27T12:18:35.845Z,101665.44
2022-12-27T12:21:24.904Z,101661.91
2022-12-27T12:24:19.262Z,101661.06
2022-12-27T12:27:19.449Z,101663.72
2022-12-27T12:30:29.048Z,101658.47
2022-12-27T12:32:59.233Z,101662.00
2022-12-27T12:35:32.701Z,101667.25
2022-12-27T12:38:21.888Z,101668.97
2022-12-27T12:41:02.856Z,101662.00
2022-12-27T12:44:03.415Z,101681.16
2022-12-27T12:47:09.540Z,101676.78
2022-12-27T12:50:09.518Z,101678.56
2022-12-27T12:53:00.585Z,101674.19
2022-12-27T12:55:51.779Z,101673.38
2022-12-27T12:58:42.916Z,101684.72
2022-12-27T13:01:28.663Z,101683.84
2022-12-27T13:04:11.073Z,101683.88
2022-12-27T13:06:51.973Z,101681.25
2022-12-27T13:09:38.510Z,101679.53
2022-12-27T13:12:39.307Z,101688.25
2022-12-27T13:15:27.790Z,101689.97
2022-12-27T13:18:30.841Z,101687.38
2022-12-27T13:21:36.763Z,101691.72
2022-12-27T13:24:16.988Z,101702.19
2022-12-27T13:27:07.129Z,101702.19
2022-12-27T13:30:11.963Z,101689.13
2022-12-27T13:33:09.885Z,101692.63
2022-12-27T13:36:15.227Z,101691.75
2022-12-27T13:39:20.160Z,101700.44
2022-12-27T13:42:25.335Z,101697.81
2022-12-27T13:45:16.925Z,101701.28
2022-12-27T13:47:55.604Z,101697.81
2022-12-27T13:50:55.565Z,101700.44
2022-12-27T13:53:37.382Z,101701.31
2022-12-27T13:56:52.918Z,101702.16
2022-12-27T13:59:25.776Z,101698.69
2022-12-27T14:02:27.488Z,101713.44
2022-12-27T14:05:23.009Z,101715.19
2022-12-27T14:08:21.757Z,101718.66
2022-12-27T14:10:55.336Z,101718.66
2022-12-27T14:13:40.359Z,101725.63
2022-12-27T14:16:32.243Z,101724.78
2022-12-27T14:19:20.464Z,101725.66
2022-12-27T14:22:04.814Z,101727.44
2022-12-27T14:24:54.938Z,101733.50
2022-12-27T14:27:45.981Z,101733.50
2022-12-27T14:30:42.062Z,101736.13
2022-12-27T14:33:38.513Z,101742.19
2022-12-27T14:36:24.565Z,101744.78
2022-12-27T14:39:16.130Z,101743.03
2022-12-27T14:42:08.666Z,101745.66
2022-12-27T14:44:57.812Z,101753.44
2022-12-27T14:48:02.460Z,101757.78
2022-12-27T14:51:14.903Z,101760.41
2022-12-27T14:54:16.316Z,101746.44
2022-12-27T14:57:09.752Z,101750.75
2022-12-27T15:00:10.612Z,101759.41
2022-12-27T15:03:09.560Z,101755.91
2022-12-27T15:05:49.001Z,101766.31
2022-12-27T15:08:33.110Z,101751.53
2022-12-27T15:11:25.758Z,101759.34
2022-12-27T15:14:19.681Z,101758.47
2022-12-27T15:17:09.250Z,101761.09
2022-12-27T15:20:08.503Z,101755.97
2022-12-27T15:22:55.875Z,101758.53
2022-12-27T15:25:34.836Z,101772.38
2022-12-27T15:28:34.193Z,101776.66
2022-12-27T15:31:21.792Z,101775.72
2022-12-27T15:34:20.661Z,101777.41
2022-12-27T15:36:49.535Z,101767.81
2022-12-27T15:39:34.914Z,101771.28
2022-12-27T15:42:29.251Z,101762.53
2022-12-27T15:45:05.916Z,101762.47
2022-12-27T15:47:37.728Z,101760.75
2022-12-27T15:50:19.869Z,101765.94
2022-12-27T15:52:53.273Z,101765.91
2022-12-27T15:55:44.194Z,101766.75
2022-12-27T15:58:26.935Z,101765.81
2022-12-27T16:01:19.202Z,101759.72
2022-12-27T16:03:52.023Z,101759.72
2022-12-27T16:06:36.114Z,101765.81
2022-12-27T16:09:35.580Z,101757.16
2022-12-27T16:12:13.073Z,101756.19
2022-12-27T16:14:43.044Z,101766.56
2022-12-27T16:17:34.906Z,101762.22
2022-12-27T16:20:08.275Z,101763.91
2022-12-27T16:22:49.114Z,101761.34
2022-12-27T16:25:30.325Z,101768.25
2022-12-27T16:28:02.224Z,101768.25
2022-12-27T16:30:39.633Z,101777.81
2022-12-27T16:33:26.293Z,101772.56
2022-12-27T16:36:18.090Z,101770.81
2022-12-27T16:38:51.784Z,101775.97
2022-12-27T16:41:57.660Z,101771.63
2022-12-27T16:44:24.811Z,101777.56
2022-12-27T16:47:19.907Z,101774.22
2022-12-27T16:50:05.509Z,101771.63
2022-12-27T16:53:10.159Z,101764.56
2022-12-27T16:56:04.289Z,101765.38
2022-12-27T16:58:31.364Z,101768.75
2022-12-27T17:01:00.655Z,101775.69
2022-12-27T17:03:44.535Z,101771.31
2022-12-27T17:06:38.990Z,101772.91
2022-12-27T17:09:09.146Z,101775.53
2022-12-27T17:11:48.316Z,101777.22
2022-12-27T17:14:35.958Z,101765.91
2022-12-27T17:17:08.523Z,101773.63
2022-12-27T17:19:39.090Z,101774.44
2022-12-27T17:22:07.839Z,101770.09
2022-12-27T17:24:35.089Z,101769.22
2022-12-27T17:27:17.564Z,101777.00
2022-12-27T17:30:17.114Z,101769.94
2022-12-27T17:33:13.901Z,101780.28
2022-12-27T17:35:58.499Z,101767.25
2022-12-27T17:38:42.218Z,101769.91
2022-12-27T17:41:45.717Z,101765.53
2022-12-27T17:44:39.585Z,101774.09
2022-12-27T17:47:22.691Z,101768.06
2022-12-27T17:49:51.447Z,101775.75
2022-12-27T17:52:38.088Z,101775.78
2022-12-27T17:55:36.693Z,101783.56
2022-12-27T17:58:09.780Z,101782.66
2022-12-27T18:00:59.235Z,101777.44
2022-12-27T18:03:32.369Z,101778.41
2022-12-27T18:05:59.587Z,101773.19
2022-12-27T18:08:33.976Z,101776.56
2022-12-27T18:11:03.157Z,101772.16
2022-12-27T18:13:35.502Z,101772.16
2022-12-27T18:16:17.305Z,101772.13
2022-12-27T18:18:47.814Z,101768.59
2022-12-27T18:21:26.614Z,101772.94
2022-12-27T18:23:54.648Z,101773.78
2022-12-27T18:26:35.727Z,101771.25
2022-12-27T18:29:03.213Z,101771.19
2022-12-27T18:31:48.091Z,101770.38
2022-12-27T18:34:26.890Z,101772.09
2022-12-27T18:37:03.697Z,101775.63
2022-12-27T18:39:36.912Z,101765.97
2022-12-27T18:42:27.043Z,101765.97
2022-12-27T18:44:57.683Z,101759.84
2022-12-27T18:47:27.133Z,101764.13
2022-12-27T18:49:58.646Z,101759.03
2022-12-27T18:52:32.011Z,101760.72
2022-12-27T18:55:19.484Z,101759.03
2022-12-27T18:57:47.200Z,101750.31
2022-12-27T19:00:26.525Z,101740.69
2022-12-27T19:02:55.228Z,101742.47
2022-12-27T19:05:23.685Z,101737.28
2022-12-27T19:07:57.804Z,101735.53
2022-12-27T19:10:27.337Z,101735.50
2022-12-27T19:12:55.247Z,101745.84
2022-12-27T19:15:27.980Z,101738.88
2022-12-27T19:18:07.486Z,101738.00
2022-12-27T19:20:38.829Z,101738.06
2022-12-27T19:23:48.999Z,101738.97
2022-12-27T19:26:16.126Z,101731.25
2022-12-27T19:28:44.792Z,101721.94
2022-12-27T19:31:19.327Z,101724.63
2022-12-27T19:33:52.329Z,101724.66
2022-12-27T19:36:26.889Z,101716.94
2022-12-27T19:38:54.832Z,101722.25
2022-12-27T19:41:22.028Z,101724.81
2022-12-27T19:43:49.297Z,101728.41
2022-12-27T19:46:19.104Z,101721.59
2022-12-27T19:49:01.154Z,101725.13
2022-12-27T19:51:33.721Z,101720.88
2022-12-27T19:54:00.903Z,101716.63
2022-12-27T19:56:28.154Z,101723.59
2022-12-27T19:58:55.573Z,101713.28
2022-12-27T20:01:22.834Z,101709.94
2022-12-27T20:03:50.078Z,101722.16
2022-12-27T20:06:22.747Z,101715.22
2022-12-27T20:08:52.537Z,101711.75
2022-12-27T20:11:22.172Z,101710.94
2022-12-27T20:13:49.982Z,101707.47
2022-12-27T20:16:18.813Z,101708.38
2022-12-27T20:18:46.697Z,101717.97
2022-12-27T20:21:16.024Z,101707.53
2022-12-27T20:23:43.362Z,101697.09
2022-12-27T20:26:11.509Z,101698.78
2022-12-27T20:28:38.773Z,101698.00
2022-12-27T20:31:14.576Z,101697.16
2022-12-27T20:33:41.883Z,101698.97
2022-12-27T20:36:09.971Z,101704.16
2022-12-27T20:38:39.275Z,101693.75
2022-12-27T20:41:14.291Z,101696.31
2022-12-27T20:43:42.460Z,101690.31
2022-12-27T20:46:17.577Z,101690.41
2022-12-27T20:48:46.116Z,101692.97
2022-12-27T20:51:22.078Z,101689.50
2022-12-27T20:53:53.787Z,101684.34
2022-12-27T20:56:20.966Z,101682.59
2022-12-27T20:58:48.129Z,101681.75
2022-12-27T21:01:18.262Z,101682.69
2022-12-27T21:03:45.853Z,101687.88
2022-12-27T21:06:18.782Z,101669.63
2022-12-27T21:08:50.547Z,101671.38
2022-12-27T21:11:26.902Z,101667.88
2022-12-27T21:13:54.450Z,101668.78
2022-12-27T21:16:27.147Z,101669.69
2022-12-27T21:18:54.813Z,101667.06
2022-12-27T21:21:27.582Z,101667.06
2022-12-27T21:23:56.304Z,101669.66
2022-12-27T21:26:29.076Z,101661.00
2022-12-27T21:28:57.056Z,101661.88
2022-12-27T21:31:24.828Z,101660.97
2022-12-27T21:33:52.047Z,101658.38
2022-12-27T21:36:27.353Z,101658.41
2022-12-27T21:38:55.314Z,101657.50
2022-12-27T21:41:24.791Z,101667.06
2022-12-27T21:43:52.006Z,101660.13
2022-12-27T21:46:22.276Z,101666.19
2022-12-27T21:48:54.704Z,101666.22
2022-12-27T21:51:22.167Z,101664.50
2022-12-27T21:53:49.582Z,101665.34
2022-12-27T21:56:17.282Z,101660.09
2022-12-27T21:58:45.044Z,101649.69
2022-12-27T22:01:16.072Z,101649.72
2022-12-27T22:03:46.234Z,101651.44
2022-12-27T22:06:19.054Z,101648.00
2022-12-27T22:08:48.277Z,101638.44
2022-12-27T22:11:15.867Z,101634.06
2022-12-27T22:13:43.616Z,101630.59
2022-12-27T22:16:24.927Z,101636.69
2022-12-27T22:18:52.614Z,101635.72
2022-12-27T22:21:24.964Z,101628.78
2022-12-27T22:23:53.856Z,101620.06
2022-12-27T22:26:30.424Z,101623.47
2022-12-27T22:28:58.061Z,101612.19
2022-12-27T22:31:27.625Z,101607.81
2022-12-27T22:33:54.863Z,101604.34
2022-12-27T22:36:23.803Z,101600.78
2022-12-27T22:38:53.551Z,101598.19
2022-12-27T22:41:25.869Z,101597.28
2022-12-27T22:43:58.731Z,101592.03
2022-12-27T22:46:27.072Z,101599.03
2022-12-27T22:48:56.385Z,101595.59
2022-12-27T22:51:26.963Z,101590.44
2022-12-27T22:53:55.300Z,101591.31
2022-12-27T22:56:28.020Z,101591.34
2022-12-27T22:58:55.662Z,101580.06
2022-12-27T23:01:28.692Z,101571.41
2022-12-27T23:03:56.835Z,101574.88
2022-12-27T23:06:28.241Z,101567.94
2022-12-27T23:08:55.842Z,101564.44
2022-12-27T23:11:25.401Z,101561.84
2022-12-27T23:14:01.566Z,101561.88
2022-12-27T23:16:30.005Z,101554.94
2022-12-27T23:18:57.173Z,101555.81
2022-12-27T23:21:24.944Z,101554.94
2022-12-27T23:23:52.890Z,101554.09
2022-12-27T23:26:21.884Z,101554.09
2022-12-27T23:28:50.443Z,101547.13
2022-12-27T23:31:18.294Z,101555.81
2022-12-27T23:33:45.754Z,101543.66
2022-12-27T23:36:13.170Z,101559.31
2022-12-27T23:38:41.795Z,101551.50
2022-12-27T23:41:10.969Z,101549.78
2022-12-27T23:43:52.217Z,101538.47
2022-12-27T23:46:20.224Z,101542.78
2022-12-27T23:48:47.867Z,101536.72
2022-12-27T23:51:18.392Z,101537.59
2022-12-27T23:53:45.969Z,101536.75
2022-12-27T23:56:20.037Z,101534.97
2022-12-27T23:58:47.766Z,101519.34
